sensor_id;sensor_type;location;lat;lon;timestamp;temperature;humidity
78448;SHT31;67742;51.972;5.682;2023-02-12T00:01:53;11.3;63.7
78448;SHT31;67742;51.972;5.682;2023-02-12T00:04:23;11.3;63.7
78448;SHT31;67742;51.972;5.682;2023-02-12T00:06:52;11.3;63.5
78448;SHT31;67742;51.972;5.682;2023-02-12T00:09:22;11.3;63.5
78448;SHT31;67742;51.972;5.682;2023-02-12T00:11:53;11.3;63.4
78448;SHT31;67742;51.972;5.682;2023-02-12T00:14:23;11.3;63.5
78448;SHT31;67742;51.972;5.682;2023-02-12T00:16:54;11.3;63.4
78448;SHT31;67742;51.972;5.682;2023-02-12T00:19:24;11.3;63.3
78448;SHT31;67742;51.972;5.682;2023-02-12T00:21:53;11.3;63.4
78448;SHT31;67742;51.972;5.682;2023-02-12T00:24:23;11.3;63.2
78448;SHT31;67742;51.972;5.682;2023-02-12T00:26:54;11.3;63.3
78448;SHT31;67742;51.972;5.682;2023-02-12T00:29:23;11.3;63.3
78448;SHT31;67742;51.972;5.682;2023-02-12T00:31:55;11.3;63.2
78448;SHT31;67742;51.972;5.682;2023-02-12T00:34:24;11.3;63.4
78448;SHT31;67742;51.972;5.682;2023-02-12T00:36:54;11.3;63.3
78448;SHT31;67742;51.972;5.682;2023-02-12T00:39:24;11.3;63.3
78448;SHT31;67742;51.972;5.682;2023-02-12T00:41:53;11.3;63.4
78448;SHT31;67742;51.972;5.682;2023-02-12T00:44:23;11.3;63.5
78448;SHT31;67742;51.972;5.682;2023-02-12T00:46:53;11.3;63.5
78448;SHT31;67742;51.972;5.682;2023-02-12T00:49:23;11.3;63.5
78448;SHT31;67742;51.972;5.682;2023-02-12T00:51:53;11.3;63.4
78448;SHT31;67742;51.972;5.682;2023-02-12T00:54:22;11.3;63.3
78448;SHT31;67742;51.972;5.682;2023-02-12T00:56:52;11.3;63.4
78448;SHT31;67742;51.972;5.682;2023-02-12T00:59:24;11.3;63.3
78448;SHT31;67742;51.972;5.682;2023-02-12T01:01:55;11.3;63.4
78448;SHT31;67742;51.972;5.682;2023-02-12T01:04:25;11.3;63.4
78448;SHT31;67742;51.972;5.682;2023-02-12T01:06:54;11.3;63.4
78448;SHT31;67742;51.972;5.682;2023-02-12T01:09:24;11.3;63.4
78448;SHT31;67742;51.972;5.682;2023-02-12T01:11:54;11.3;63.4
78448;SHT31;67742;51.972;5.682;2023-02-12T01:14:24;11.3;63.4
78448;SHT31;67742;51.972;5.682;2023-02-12T01:16:53;11.3;63.3
78448;SHT31;67742;51.972;5.682;2023-02-12T01:19:23;11.3;63.3
78448;SHT31;67742;51.972;5.682;2023-02-12T01:21:52;11.3;63.0
78448;SHT31;67742;51.972;5.682;2023-02-12T01:24:22;11.3;63.2
78448;SHT31;67742;51.972;5.682;2023-02-12T01:26:52;11.3;63.2
78448;SHT31;67742;51.972;5.682;2023-02-12T01:29:21;11.3;63.1
78448;SHT31;67742;51.972;5.682;2023-02-12T01:31:51;11.3;63.1
78448;SHT31;67742;51.972;5.682;2023-02-12T01:34:20;11.3;63.0
78448;SHT31;67742;51.972;5.682;2023-02-12T01:36:50;11.3;62.9
78448;SHT31;67742;51.972;5.682;2023-02-12T01:39:19;11.3;62.8
78448;SHT31;67742;51.972;5.682;2023-02-12T01:41:49;11.3;62.8
78448;SHT31;67742;51.972;5.682;2023-02-12T01:44:21;11.3;62.7
78448;SHT31;67742;51.972;5.682;2023-02-12T01:46:55;11.2;62.6
78448;SHT31;67742;51.972;5.682;2023-02-12T01:49:30;11.2;62.5
78448;SHT31;67742;51.972;5.682;2023-02-12T01:52:03;11.2;62.4
78448;SHT31;67742;51.972;5.682;2023-02-12T01:54:36;11.2;62.3
78448;SHT31;67742;51.972;5.682;2023-02-12T01:57:08;11.2;62.3
78448;SHT31;67742;51.972;5.682;2023-02-12T01:59:40;11.2;62.3
78448;SHT31;67742;51.972;5.682;2023-02-12T02:02:12;11.1;62.2
78448;SHT31;67742;51.972;5.682;2023-02-12T02:07:09;11.2;62.5
78448;SHT31;67742;51.972;5.682;2023-02-12T02:09:40;11.2;62.2
78448;SHT31;67742;51.972;5.682;2023-02-12T02:12:11;11.2;61.9
78448;SHT31;67742;51.972;5.682;2023-02-12T02:15:02;11.2;61.7
78448;SHT31;67742;51.972;5.682;2023-02-12T02:17:49;11.3;61.5
78448;SHT31;67742;51.972;5.682;2023-02-12T02:20:54;11.3;61.4
78448;SHT31;67742;51.972;5.682;2023-02-12T02:23:47;11.3;61.2
78448;SHT31;67742;51.972;5.682;2023-02-12T02:30:38;11.3;61.1
78448;SHT31;67742;51.972;5.682;2023-02-12T02:33:26;11.3;61.0
78448;SHT31;67742;51.972;5.682;2023-02-12T02:36:18;11.3;60.9
78448;SHT31;67742;51.972;5.682;2023-02-12T02:39:08;11.3;61.0
78448;SHT31;67742;51.972;5.682;2023-02-12T02:41:50;11.3;61.1
78448;SHT31;67742;51.972;5.682;2023-02-12T02:44:27;11.3;61.1
78448;SHT31;67742;51.972;5.682;2023-02-12T02:47:06;11.3;61.2
78448;SHT31;67742;51.972;5.682;2023-02-12T02:49:49;11.3;61.2
78448;SHT31;67742;51.972;5.682;2023-02-12T02:52:56;11.4;61.2
78448;SHT31;67742;51.972;5.682;2023-02-12T02:55:34;11.4;61.1
78448;SHT31;67742;51.972;5.682;2023-02-12T02:58:12;11.4;61.1
78448;SHT31;67742;51.972;5.682;2023-02-12T03:00:47;11.4;61.0
78448;SHT31;67742;51.972;5.682;2023-02-12T03:03:25;11.4;61.0
78448;SHT31;67742;51.972;5.682;2023-02-12T03:06:03;11.4;61.0
78448;SHT31;67742;51.972;5.682;2023-02-12T03:09:04;11.4;61.1
78448;SHT31;67742;51.972;5.682;2023-02-12T03:11:43;11.3;61.1
78448;SHT31;67742;51.972;5.682;2023-02-12T03:14:24;11.3;60.9
78448;SHT31;67742;51.972;5.682;2023-02-12T03:17:06;11.3;60.7
78448;SHT31;67742;51.972;5.682;2023-02-12T03:19:41;11.3;60.7
78448;SHT31;67742;51.972;5.682;2023-02-12T03:22:18;11.3;60.6
78448;SHT31;67742;51.972;5.682;2023-02-12T03:24:55;11.3;60.6
78448;SHT31;67742;51.972;5.682;2023-02-12T03:27:36;11.3;60.5
78448;SHT31;67742;51.972;5.682;2023-02-12T03:30:09;11.3;60.6
78448;SHT31;67742;51.972;5.682;2023-02-12T03:32:57;11.3;60.6
78448;SHT31;67742;51.972;5.682;2023-02-12T03:35:32;11.3;60.7
78448;SHT31;67742;51.972;5.682;2023-02-12T03:38:20;11.3;60.8
78448;SHT31;67742;51.972;5.682;2023-02-12T03:41:01;11.3;60.8
78448;SHT31;67742;51.972;5.682;2023-02-12T03:43:46;11.3;60.8
78448;SHT31;67742;51.972;5.682;2023-02-12T03:46:31;11.3;60.8
78448;SHT31;67742;51.972;5.682;2023-02-12T03:49:09;11.3;60.7
78448;SHT31;67742;51.972;5.682;2023-02-12T03:51:58;11.3;60.8
78448;SHT31;67742;51.972;5.682;2023-02-12T03:54:35;11.3;61.0
78448;SHT31;67742;51.972;5.682;2023-02-12T03:57:10;11.3;60.9
78448;SHT31;67742;51.972;5.682;2023-02-12T03:59:58;11.4;60.8
78448;SHT31;67742;51.972;5.682;2023-02-12T04:02:30;11.3;60.6
78448;SHT31;67742;51.972;5.682;2023-02-12T04:05:04;11.3;60.6
78448;SHT31;67742;51.972;5.682;2023-02-12T04:07:36;11.3;60.8
78448;SHT31;67742;51.972;5.682;2023-02-12T04:10:07;11.3;60.8
78448;SHT31;67742;51.972;5.682;2023-02-12T04:12:49;11.3;60.9
78448;SHT31;67742;51.972;5.682;2023-02-12T04:15:40;11.3;61.0
78448;SHT31;67742;51.972;5.682;2023-02-12T04:18:17;11.3;60.9
78448;SHT31;67742;51.972;5.682;2023-02-12T04:20:54;11.3;60.8
78448;SHT31;67742;51.972;5.682;2023-02-12T04:23:49;11.3;60.7
78448;SHT31;67742;51.972;5.682;2023-02-12T04:26:32;11.3;60.7
78448;SHT31;67742;51.972;5.682;2023-02-12T04:29:13;11.3;60.6
78448;SHT31;67742;51.972;5.682;2023-02-12T04:32:00;11.3;60.8
78448;SHT31;67742;51.972;5.682;2023-02-12T04:34:38;11.3;60.7
78448;SHT31;67742;51.972;5.682;2023-02-12T04:37:17;11.3;60.9
78448;SHT31;67742;51.972;5.682;2023-02-12T04:39:49;11.3;61.0
78448;SHT31;67742;51.972;5.682;2023-02-12T04:42:33;11.3;61.0
78448;SHT31;67742;51.972;5.682;2023-02-12T04:45:08;11.3;61.0
78448;SHT31;67742;51.972;5.682;2023-02-12T04:47:39;11.3;61.0
78448;SHT31;67742;51.972;5.682;2023-02-12T04:50:16;11.3;60.9
78448;SHT31;67742;51.972;5.682;2023-02-12T04:52:48;11.3;61.1
78448;SHT31;67742;51.972;5.682;2023-02-12T04:55:20;11.3;61.1
78448;SHT31;67742;51.972;5.682;2023-02-12T04:58:04;11.3;60.9
78448;SHT31;67742;51.972;5.682;2023-02-12T05:00:38;11.3;61.0
78448;SHT31;67742;51.972;5.682;2023-02-12T05:03:10;11.3;60.9
78448;SHT31;67742;51.972;5.682;2023-02-12T05:05:50;11.3;61.1
78448;SHT31;67742;51.972;5.682;2023-02-12T05:12:02;11.4;61.0
78448;SHT31;67742;51.972;5.682;2023-02-12T05:15:03;11.4;60.9
78448;SHT31;67742;51.972;5.682;2023-02-12T05:17:46;11.4;60.8
78448;SHT31;67742;51.972;5.682;2023-02-12T05:20:34;11.5;60.7
78448;SHT31;67742;51.972;5.682;2023-02-12T05:23:05;11.5;60.5
78448;SHT31;67742;51.972;5.682;2023-02-12T05:25:36;11.5;60.5
78448;SHT31;67742;51.972;5.682;2023-02-12T05:28:06;11.5;60.1
78448;SHT31;67742;51.972;5.682;2023-02-12T05:40:43;11.6;60.2
78448;SHT31;67742;51.972;5.682;2023-02-12T05:43:29;11.5;60.3
78448;SHT31;67742;51.972;5.682;2023-02-12T05:46:01;11.5;60.1
78448;SHT31;67742;51.972;5.682;2023-02-12T05:48:34;11.5;60.3
78448;SHT31;67742;51.972;5.682;2023-02-12T05:51:08;11.6;60.3
78448;SHT31;67742;51.972;5.682;2023-02-12T05:54:03;11.6;60.0
78448;SHT31;67742;51.972;5.682;2023-02-12T05:56:45;11.7;60.0
78448;SHT31;67742;51.972;5.682;2023-02-12T05:59:20;11.7;59.9
78448;SHT31;67742;51.972;5.682;2023-02-12T06:01:52;11.7;59.6
78448;SHT31;67742;51.972;5.682;2023-02-12T06:04:29;11.8;59.5
78448;SHT31;67742;51.972;5.682;2023-02-12T06:07:00;11.8;59.5
78448;SHT31;67742;51.972;5.682;2023-02-12T06:09:34;11.8;59.3
78448;SHT31;67742;51.972;5.682;2023-02-12T06:12:06;11.8;59.4
78448;SHT31;67742;51.972;5.682;2023-02-12T06:14:39;11.7;59.5
78448;SHT31;67742;51.972;5.682;2023-02-12T06:17:10;11.7;59.5
78448;SHT31;67742;51.972;5.682;2023-02-12T06:19:43;11.7;59.5
78448;SHT31;67742;51.972;5.682;2023-02-12T06:22:18;11.7;59.5
78448;SHT31;67742;51.972;5.682;2023-02-12T06:25:03;11.7;59.5
78448;SHT31;67742;51.972;5.682;2023-02-12T06:27:34;11.7;59.8
78448;SHT31;67742;51.972;5.682;2023-02-12T06:30:06;11.7;59.9
78448;SHT31;67742;51.972;5.682;2023-02-12T06:32:38;11.7;59.9
78448;SHT31;67742;51.972;5.682;2023-02-12T06:45:13;11.8;59.4
78448;SHT31;67742;51.972;5.682;2023-02-12T06:48:02;11.8;59.5
78448;SHT31;67742;51.972;5.682;2023-02-12T06:50:33;11.8;59.7
78448;SHT31;67742;51.972;5.682;2023-02-12T06:53:25;11.8;59.7
78448;SHT31;67742;51.972;5.682;2023-02-12T06:56:08;11.8;59.5
78448;SHT31;67742;51.972;5.682;2023-02-12T07:12:05;12.0;58.8
78448;SHT31;67742;51.972;5.682;2023-02-12T07:18:17;12.0;58.9
78448;SHT31;67742;51.972;5.682;2023-02-12T07:20:47;12.1;58.6
78448;SHT31;67742;51.972;5.682;2023-02-12T07:23:16;12.1;58.5
78448;SHT31;67742;51.972;5.682;2023-02-12T07:25:55;12.0;58.4
78448;SHT31;67742;51.972;5.682;2023-02-12T07:28:26;12.0;58.1
78448;SHT31;67742;51.972;5.682;2023-02-12T07:31:02;12.0;58.4
78448;SHT31;67742;51.972;5.682;2023-02-12T07:33:36;12.0;58.2
78448;SHT31;67742;51.972;5.682;2023-02-12T07:36:10;11.9;58.3
78448;SHT31;67742;51.972;5.682;2023-02-12T07:38:43;11.9;59.0
78448;SHT31;67742;51.972;5.682;2023-02-12T07:41:28;11.9;59.1
78448;SHT31;67742;51.972;5.682;2023-02-12T07:44:02;11.9;59.2
78448;SHT31;67742;51.972;5.682;2023-02-12T07:47:02;11.9;59.3
78448;SHT31;67742;51.972;5.682;2023-02-12T07:49:32;11.9;59.2
78448;SHT31;67742;51.972;5.682;2023-02-12T07:52:02;11.9;58.8
78448;SHT31;67742;51.972;5.682;2023-02-12T07:54:32;11.9;58.8
78448;SHT31;67742;51.972;5.682;2023-02-12T07:57:04;11.9;58.8
78448;SHT31;67742;51.972;5.682;2023-02-12T07:59:35;11.9;58.7
78448;SHT31;67742;51.972;5.682;2023-02-12T08:02:08;11.9;58.6
78448;SHT31;67742;51.972;5.682;2023-02-12T08:04:38;11.9;58.6
78448;SHT31;67742;51.972;5.682;2023-02-12T08:07:09;11.9;58.7
78448;SHT31;67742;51.972;5.682;2023-02-12T08:09:39;11.9;58.9
78448;SHT31;67742;51.972;5.682;2023-02-12T08:12:17;11.9;59.0
78448;SHT31;67742;51.972;5.682;2023-02-12T08:14:47;11.9;59.1
78448;SHT31;67742;51.972;5.682;2023-02-12T08:17:17;11.9;58.4
78448;SHT31;67742;51.972;5.682;2023-02-12T08:19:59;11.9;58.4
78448;SHT31;67742;51.972;5.682;2023-02-12T08:22:29;11.9;58.5
78448;SHT31;67742;51.972;5.682;2023-02-12T08:24:59;12.0;58.3
78448;SHT31;67742;51.972;5.682;2023-02-12T08:27:29;12.0;58.3
78448;SHT31;67742;51.972;5.682;2023-02-12T08:29:59;12.0;58.1
78448;SHT31;67742;51.972;5.682;2023-02-12T08:32:47;12.0;58.1
78448;SHT31;67742;51.972;5.682;2023-02-12T08:35:17;12.0;58.1
78448;SHT31;67742;51.972;5.682;2023-02-12T08:37:49;12.0;58.2
78448;SHT31;67742;51.972;5.682;2023-02-12T08:40:20;12.0;57.8
78448;SHT31;67742;51.972;5.682;2023-02-12T08:43:02;12.1;58.2
78448;SHT31;67742;51.972;5.682;2023-02-12T08:46:04;12.1;57.9
78448;SHT31;67742;51.972;5.682;2023-02-12T08:48:35;12.1;57.9
78448;SHT31;67742;51.972;5.682;2023-02-12T08:51:10;12.1;57.9
78448;SHT31;67742;51.972;5.682;2023-02-12T08:53:42;12.1;57.6
78448;SHT31;67742;51.972;5.682;2023-02-12T08:56:16;12.1;57.6
78448;SHT31;67742;51.972;5.682;2023-02-12T08:58:46;12.1;57.5
78448;SHT31;67742;51.972;5.682;2023-02-12T09:01:18;12.1;57.7
78448;SHT31;67742;51.972;5.682;2023-02-12T09:03:52;12.1;57.4
78448;SHT31;67742;51.972;5.682;2023-02-12T09:06:27;12.1;57.6
78448;SHT31;67742;51.972;5.682;2023-02-12T09:09:01;12.1;57.8
78448;SHT31;67742;51.972;5.682;2023-02-12T09:11:33;12.2;57.6
78448;SHT31;67742;51.972;5.682;2023-02-12T09:14:06;12.2;57.5
78448;SHT31;67742;51.972;5.682;2023-02-12T09:17:04;12.2;57.3
78448;SHT31;67742;51.972;5.682;2023-02-12T09:20:01;12.2;57.5
78448;SHT31;67742;51.972;5.682;2023-02-12T09:23:04;12.2;57.8
78448;SHT31;67742;51.972;5.682;2023-02-12T09:25:39;12.3;57.3
78448;SHT31;67742;51.972;5.682;2023-02-12T09:28:25;12.3;57.0
78448;SHT31;67742;51.972;5.682;2023-02-12T09:30:55;12.3;57.2
78448;SHT31;67742;51.972;5.682;2023-02-12T09:33:57;12.3;57.4
78448;SHT31;67742;51.972;5.682;2023-02-12T09:37:01;12.3;57.5
78448;SHT31;67742;51.972;5.682;2023-02-12T09:40:01;12.3;57.1
78448;SHT31;67742;51.972;5.682;2023-02-12T09:45:34;12.4;56.7
78448;SHT31;67742;51.972;5.682;2023-02-12T09:48:59;12.4;57.1
78448;SHT31;67742;51.972;5.682;2023-02-12T09:52:01;12.3;56.9
78448;SHT31;67742;51.972;5.682;2023-02-12T09:55:02;12.3;57.0
78448;SHT31;67742;51.972;5.682;2023-02-12T09:57:34;12.4;56.9
78448;SHT31;67742;51.972;5.682;2023-02-12T10:00:06;12.4;56.7
78448;SHT31;67742;51.972;5.682;2023-02-12T10:02:39;12.4;56.6
78448;SHT31;67742;51.972;5.682;2023-02-12T10:05:16;12.4;56.9
78448;SHT31;67742;51.972;5.682;2023-02-12T10:08:07;12.4;56.9
78448;SHT31;67742;51.972;5.682;2023-02-12T10:10:52;12.4;56.4
78448;SHT31;67742;51.972;5.682;2023-02-12T10:13:56;12.4;56.8
78448;SHT31;67742;51.972;5.682;2023-02-12T10:16:45;12.4;56.4
78448;SHT31;67742;51.972;5.682;2023-02-12T10:19:36;12.5;56.9
78448;SHT31;67742;51.972;5.682;2023-02-12T10:22:20;12.5;56.3
78448;SHT31;67742;51.972;5.682;2023-02-12T10:25:08;12.5;55.5
78448;SHT31;67742;51.972;5.682;2023-02-12T10:27:50;12.5;56.1
78448;SHT31;67742;51.972;5.682;2023-02-12T10:30:25;12.5;56.0
78448;SHT31;67742;51.972;5.682;2023-02-12T10:33:01;12.4;55.9
78448;SHT31;67742;51.972;5.682;2023-02-12T10:35:34;12.4;56.3
78448;SHT31;67742;51.972;5.682;2023-02-12T10:38:12;12.3;56.6
78448;SHT31;67742;51.972;5.682;2023-02-12T10:40:44;12.3;56.8
78448;SHT31;67742;51.972;5.682;2023-02-12T10:43:17;12.2;57.3
78448;SHT31;67742;51.972;5.682;2023-02-12T10:45:46;12.2;57.8
78448;SHT31;67742;51.972;5.682;2023-02-12T10:48:20;12.1;57.7
78448;SHT31;67742;51.972;5.682;2023-02-12T10:51:01;12.1;58.0
78448;SHT31;67742;51.972;5.682;2023-02-12T10:53:35;12.1;58.0
78448;SHT31;67742;51.972;5.682;2023-02-12T10:56:12;12.1;57.8
78448;SHT31;67742;51.972;5.682;2023-02-12T10:58:55;12.0;58.4
78448;SHT31;67742;51.972;5.682;2023-02-12T11:01:27;12.0;58.3
78448;SHT31;67742;51.972;5.682;2023-02-12T11:04:00;12.0;58.5
78448;SHT31;67742;51.972;5.682;2023-02-12T11:06:33;12.0;58.5
78448;SHT31;67742;51.972;5.682;2023-02-12T11:09:03;12.0;59.1
78448;SHT31;67742;51.972;5.682;2023-02-12T11:11:37;12.0;59.1
78448;SHT31;67742;51.972;5.682;2023-02-12T11:14:16;11.9;59.5
78448;SHT31;67742;51.972;5.682;2023-02-12T11:16:52;11.9;59.3
78448;SHT31;67742;51.972;5.682;2023-02-12T11:19:25;11.9;59.3
78448;SHT31;67742;51.972;5.682;2023-02-12T11:22:07;11.9;59.5
78448;SHT31;67742;51.972;5.682;2023-02-12T11:24:41;11.9;59.3
78448;SHT31;67742;51.972;5.682;2023-02-12T11:27:22;11.9;58.9
78448;SHT31;67742;51.972;5.682;2023-02-12T11:30:17;11.9;59.1
78448;SHT31;67742;51.972;5.682;2023-02-12T11:32:47;12.0;59.7
78448;SHT31;67742;51.972;5.682;2023-02-12T11:35:20;12.0;59.5
78448;SHT31;67742;51.972;5.682;2023-02-12T11:37:56;12.0;59.4
78448;SHT31;67742;51.972;5.682;2023-02-12T11:40:29;12.0;58.9
78448;SHT31;67742;51.972;5.682;2023-02-12T11:43:02;12.0;58.6
78448;SHT31;67742;51.972;5.682;2023-02-12T11:45:42;12.0;59.0
78448;SHT31;67742;51.972;5.682;2023-02-12T11:48:19;12.0;58.7
78448;SHT31;67742;51.972;5.682;2023-02-12T11:50:57;12.0;59.1
78448;SHT31;67742;51.972;5.682;2023-02-12T11:53:32;12.0;59.4
78448;SHT31;67742;51.972;5.682;2023-02-12T11:56:06;12.0;58.8
78448;SHT31;67742;51.972;5.682;2023-02-12T11:58:37;12.0;58.7
78448;SHT31;67742;51.972;5.682;2023-02-12T12:01:12;12.0;58.4
78448;SHT31;67742;51.972;5.682;2023-02-12T12:03:52;12.0;58.6
78448;SHT31;67742;51.972;5.682;2023-02-12T12:06:28;12.0;58.4
78448;SHT31;67742;51.972;5.682;2023-02-12T12:09:04;12.1;57.9
78448;SHT31;67742;51.972;5.682;2023-02-12T12:11:42;12.1;57.7
78448;SHT31;67742;51.972;5.682;2023-02-12T12:14:21;12.1;57.4
78448;SHT31;67742;51.972;5.682;2023-02-12T12:16:58;12.1;57.0
78448;SHT31;67742;51.972;5.682;2023-02-12T12:19:51;12.1;56.9
78448;SHT31;67742;51.972;5.682;2023-02-12T12:22:41;12.1;57.0
78448;SHT31;67742;51.972;5.682;2023-02-12T12:25:19;12.0;56.7
78448;SHT31;67742;51.972;5.682;2023-02-12T12:27:57;12.0;57.1
78448;SHT31;67742;51.972;5.682;2023-02-12T12:30:44;12.0;56.6
78448;SHT31;67742;51.972;5.682;2023-02-12T12:33:23;12.0;56.7
78448;SHT31;67742;51.972;5.682;2023-02-12T12:36:05;12.0;56.7
78448;SHT31;67742;51.972;5.682;2023-02-12T12:38:45;12.0;56.5
78448;SHT31;67742;51.972;5.682;2023-02-12T12:41:27;12.0;56.8
78448;SHT31;67742;51.972;5.682;2023-02-12T12:44:12;11.9;56.9
78448;SHT31;67742;51.972;5.682;2023-02-12T12:47:06;11.9;56.9
78448;SHT31;67742;51.972;5.682;2023-02-12T12:49:54;12.0;56.8
78448;SHT31;67742;51.972;5.682;2023-02-12T12:52:42;12.0;56.4
78448;SHT31;67742;51.972;5.682;2023-02-12T12:55:39;12.0;57.0
78448;SHT31;67742;51.972;5.682;2023-02-12T12:58:19;12.0;56.6
78448;SHT31;67742;51.972;5.682;2023-02-12T13:01:13;12.0;56.3
78448;SHT31;67742;51.972;5.682;2023-02-12T13:06:09;12.0;55.9
78448;SHT31;67742;51.972;5.682;2023-02-12T13:09:05;12.0;56.5
78448;SHT31;67742;51.972;5.682;2023-02-12T13:11:49;12.0;56.3
78448;SHT31;67742;51.972;5.682;2023-02-12T13:14:34;12.1;56.0
78448;SHT31;67742;51.972;5.682;2023-02-12T13:17:15;12.1;55.8
78448;SHT31;67742;51.972;5.682;2023-02-12T13:19:57;12.1;56.6
78448;SHT31;67742;51.972;5.682;2023-02-12T13:22:37;12.1;56.6
78448;SHT31;67742;51.972;5.682;2023-02-12T13:25:20;12.1;56.1
78448;SHT31;67742;51.972;5.682;2023-02-12T13:27:54;12.1;56.0
78448;SHT31;67742;51.972;5.682;2023-02-12T13:30:29;12.1;56.0
78448;SHT31;67742;51.972;5.682;2023-02-12T13:33:08;12.1;56.0
78448;SHT31;67742;51.972;5.682;2023-02-12T13:35:45;12.1;56.5
78448;SHT31;67742;51.972;5.682;2023-02-12T13:38:21;12.1;56.1
78448;SHT31;67742;51.972;5.682;2023-02-12T13:40:55;12.1;56.2
78448;SHT31;67742;51.972;5.682;2023-02-12T13:43:42;12.1;56.3
78448;SHT31;67742;51.972;5.682;2023-02-12T13:46:20;12.1;55.8
78448;SHT31;67742;51.972;5.682;2023-02-12T13:48:59;12.0;55.5
78448;SHT31;67742;51.972;5.682;2023-02-12T13:51:42;12.0;55.2
78448;SHT31;67742;51.972;5.682;2023-02-12T13:54:28;12.0;55.6
78448;SHT31;67742;51.972;5.682;2023-02-12T13:57:06;12.0;55.7
78448;SHT31;67742;51.972;5.682;2023-02-12T13:59:55;12.0;55.6
78448;SHT31;67742;51.972;5.682;2023-02-12T14:05:20;12.0;55.6
78448;SHT31;67742;51.972;5.682;2023-02-12T14:07:54;12.0;55.9
78448;SHT31;67742;51.972;5.682;2023-02-12T14:10:27;12.0;56.7
78448;SHT31;67742;51.972;5.682;2023-02-12T14:13:19;12.1;55.6
78448;SHT31;67742;51.972;5.682;2023-02-12T14:15:52;12.1;56.1
78448;SHT31;67742;51.972;5.682;2023-02-12T14:18:31;12.1;56.1
78448;SHT31;67742;51.972;5.682;2023-02-12T14:24:47;12.1;55.6
78448;SHT31;67742;51.972;5.682;2023-02-12T14:27:23;12.2;55.7
78448;SHT31;67742;51.972;5.682;2023-02-12T14:31:25;12.2;55.9
78448;SHT31;67742;51.972;5.682;2023-02-12T14:34:38;12.2;56.1
78448;SHT31;67742;51.972;5.682;2023-02-12T14:37:14;12.2;55.9
78448;SHT31;67742;51.972;5.682;2023-02-12T14:39:44;12.2;55.3
78448;SHT31;67742;51.972;5.682;2023-02-12T14:42:51;12.2;54.9
78448;SHT31;67742;51.972;5.682;2023-02-12T14:45:57;12.2;55.1
78448;SHT31;67742;51.972;5.682;2023-02-12T14:48:50;12.2;55.4
78448;SHT31;67742;51.972;5.682;2023-02-12T14:51:32;12.2;55.5
78448;SHT31;67742;51.972;5.682;2023-02-12T14:54:04;12.2;55.4
78448;SHT31;67742;51.972;5.682;2023-02-12T14:56:45;12.2;55.4
78448;SHT31;67742;51.972;5.682;2023-02-12T14:59:19;12.2;55.8
78448;SHT31;67742;51.972;5.682;2023-02-12T15:01:50;12.2;55.3
78448;SHT31;67742;51.972;5.682;2023-02-12T15:04:25;12.2;55.1
78448;SHT31;67742;51.972;5.682;2023-02-12T15:07:13;12.2;55.2
78448;SHT31;67742;51.972;5.682;2023-02-12T15:09:59;12.2;55.0
78448;SHT31;67742;51.972;5.682;2023-02-12T15:13:16;12.3;54.5
78448;SHT31;67742;51.972;5.682;2023-02-12T15:15:56;12.3;54.8
78448;SHT31;67742;51.972;5.682;2023-02-12T15:18:41;12.3;54.5
78448;SHT31;67742;51.972;5.682;2023-02-12T15:21:18;12.3;54.8
78448;SHT31;67742;51.972;5.682;2023-02-12T15:24:01;12.3;54.8
78448;SHT31;67742;51.972;5.682;2023-02-12T15:26:33;12.3;54.5
78448;SHT31;67742;51.972;5.682;2023-02-12T15:29:06;12.3;54.5
78448;SHT31;67742;51.972;5.682;2023-02-12T15:33:27;12.3;54.6
78448;SHT31;67742;51.972;5.682;2023-02-12T15:36:02;12.3;54.7
78448;SHT31;67742;51.972;5.682;2023-02-12T15:38:34;12.3;55.1
78448;SHT31;67742;51.972;5.682;2023-02-12T15:41:08;12.3;54.6
78448;SHT31;67742;51.972;5.682;2023-02-12T15:43:40;12.3;55.0
78448;SHT31;67742;51.972;5.682;2023-02-12T15:46:34;12.3;55.0
78448;SHT31;67742;51.972;5.682;2023-02-12T15:49:20;12.3;54.6
78448;SHT31;67742;51.972;5.682;2023-02-12T15:51:50;12.3;54.2
78448;SHT31;67742;51.972;5.682;2023-02-12T15:54:21;12.3;54.6
78448;SHT31;67742;51.972;5.682;2023-02-12T15:56:52;12.3;54.2
78448;SHT31;67742;51.972;5.682;2023-02-12T15:59:24;12.3;54.7
78448;SHT31;67742;51.972;5.682;2023-02-12T16:01:57;12.3;54.5
78448;SHT31;67742;51.972;5.682;2023-02-12T16:04:31;12.3;54.7
78448;SHT31;67742;51.972;5.682;2023-02-12T16:07:03;12.3;54.9
78448;SHT31;67742;51.972;5.682;2023-02-12T16:09:34;12.3;54.9
78448;SHT31;67742;51.972;5.682;2023-02-12T16:12:13;12.3;54.5
78448;SHT31;67742;51.972;5.682;2023-02-12T16:14:47;12.3;55.2
78448;SHT31;67742;51.972;5.682;2023-02-12T16:17:28;12.3;54.9
78448;SHT31;67742;51.972;5.682;2023-02-12T16:20:01;12.3;55.6
78448;SHT31;67742;51.972;5.682;2023-02-12T16:22:37;12.3;55.2
78448;SHT31;67742;51.972;5.682;2023-02-12T16:25:15;12.3;54.9
78448;SHT31;67742;51.972;5.682;2023-02-12T16:27:55;12.3;54.3
78448;SHT31;67742;51.972;5.682;2023-02-12T16:30:31;12.3;54.9
78448;SHT31;67742;51.972;5.682;2023-02-12T16:33:01;12.3;55.1
78448;SHT31;67742;51.972;5.682;2023-02-12T16:35:33;12.3;55.2
78448;SHT31;67742;51.972;5.682;2023-02-12T16:38:39;12.3;55.4
78448;SHT31;67742;51.972;5.682;2023-02-12T16:41:21;12.3;55.1
78448;SHT31;67742;51.972;5.682;2023-02-12T16:44:22;12.3;55.7
78448;SHT31;67742;51.972;5.682;2023-02-12T16:46:58;12.3;55.3
78448;SHT31;67742;51.972;5.682;2023-02-12T16:49:30;12.3;55.7
78448;SHT31;67742;51.972;5.682;2023-02-12T16:52:35;12.3;55.5
78448;SHT31;67742;51.972;5.682;2023-02-12T16:55:12;12.3;55.1
78448;SHT31;67742;51.972;5.682;2023-02-12T16:57:43;12.2;55.1
78448;SHT31;67742;51.972;5.682;2023-02-12T17:00:16;12.2;55.3
78448;SHT31;67742;51.972;5.682;2023-02-12T17:02:46;12.2;55.6
78448;SHT31;67742;51.972;5.682;2023-02-12T17:05:17;12.2;54.7
78448;SHT31;67742;51.972;5.682;2023-02-12T17:07:46;12.2;55.4
78448;SHT31;67742;51.972;5.682;2023-02-12T17:10:17;12.2;55.4
78448;SHT31;67742;51.972;5.682;2023-02-12T17:12:49;12.2;55.3
78448;SHT31;67742;51.972;5.682;2023-02-12T17:15:23;12.2;55.7
78448;SHT31;67742;51.972;5.682;2023-02-12T17:17:54;12.1;55.1
78448;SHT31;67742;51.972;5.682;2023-02-12T17:20:23;12.1;54.8
78448;SHT31;67742;51.972;5.682;2023-02-12T17:22:55;12.1;55.1
78448;SHT31;67742;51.972;5.682;2023-02-12T17:25:26;12.1;55.0
78448;SHT31;67742;51.972;5.682;2023-02-12T17:27:57;12.1;55.5
78448;SHT31;67742;51.972;5.682;2023-02-12T17:30:26;12.1;56.0
78448;SHT31;67742;51.972;5.682;2023-02-12T17:32:59;12.1;55.6
78448;SHT31;67742;51.972;5.682;2023-02-12T17:35:29;12.1;55.7
78448;SHT31;67742;51.972;5.682;2023-02-12T17:37:58;12.1;55.8
78448;SHT31;67742;51.972;5.682;2023-02-12T17:40:28;12.1;56.6
78448;SHT31;67742;51.972;5.682;2023-02-12T17:42:58;12.1;56.6
78448;SHT31;67742;51.972;5.682;2023-02-12T17:45:27;12.1;56.0
78448;SHT31;67742;51.972;5.682;2023-02-12T17:47:57;12.1;55.7
78448;SHT31;67742;51.972;5.682;2023-02-12T17:50:27;12.1;56.7
78448;SHT31;67742;51.972;5.682;2023-02-12T17:52:57;12.1;56.4
78448;SHT31;67742;51.972;5.682;2023-02-12T17:55:26;12.0;56.2
78448;SHT31;67742;51.972;5.682;2023-02-12T17:57:56;12.0;56.9
78448;SHT31;67742;51.972;5.682;2023-02-12T18:00:26;12.0;56.1
78448;SHT31;67742;51.972;5.682;2023-02-12T18:02:56;12.0;55.8
78448;SHT31;67742;51.972;5.682;2023-02-12T18:05:26;12.0;55.8
78448;SHT31;67742;51.972;5.682;2023-02-12T18:07:56;12.0;56.1
78448;SHT31;67742;51.972;5.682;2023-02-12T18:10:26;12.0;56.9
78448;SHT31;67742;51.972;5.682;2023-02-12T18:12:55;12.0;56.4